METAR Data
IDs: Format: Raw Decoded Include TAF

Data at: 2120 UTC 20 Nov 2018

KF05 202115Z AUTO 22004KT 10SM CLR 14/M02 A3033 RMK AO1 T01411017
KF05 202055Z AUTO 18005KT 10SM CLR 14/M01 A3033 RMK AO1 T01401014
KF05 202035Z AUTO 20006KT 10SM CLR 14/M01 A3034 RMK AO1 T01381014
KF05 202015Z AUTO 18003KT 10SM CLR 14/M01 A3035 RMK AO1 T01361015
KF05 201955Z AUTO 14003KT 10SM CLR 13/M01 A3035 RMK AO1 T01341012
KF05 201935Z AUTO 19006KT 10SM CLR 13/M01 A3037 RMK AO1 T01311014
KF05 201915Z AUTO 17004KT 10SM CLR 13/M02 A3038 RMK AO1 T01271017
KF05 201855Z AUTO 17006KT 10SM CLR 13/M01 A3039 RMK AO1 T01251011
KF05 201835Z AUTO 21006KT 10SM CLR 12/00 A3040 RMK AO1 T01191004
KF05 201815Z AUTO 19004KT 10SM CLR 12/00 A3041 RMK AO1 T01181002
KF05 201755Z AUTO 20005KT 10SM CLR 11/00 A3042 RMK AO1 6//// T01141003
KF05 201735Z AUTO 19006KT 10SM CLR 11/00 A3043 RMK AO1 T01101002
KF05 201715Z AUTO 17003KT 10SM CLR 10/00 A3043 RMK AO1 T01040002
KF05 201655Z AUTO 18004KT 10SM CLR 10/01 A3044 RMK AO1 T00980005
KF05 201635Z AUTO 00000KT 10SM CLR 09/01 A3043 RMK AO1 T00900006
KF05 201615Z AUTO 22003KT A3044 RMK AO1 PNO
KF05 200515Z AUTO CLR RMK AO1 PNO TSNO
KF05 200455Z AUTO 02006KT 2SM CLR 04/M01 A3032 RMK AO1 T00381015
KF05 200435Z AUTO 01006KT 5SM CLR 03/M01 A3032 RMK AO1 T00341013
KF05 200415Z AUTO 01007KT 2 1/2SM CLR 03/M01 A3031 RMK AO1 T00341013
KF05 200355Z AUTO 36007KT 5SM CLR 04/M01 A3030 RMK AO1 T00421012
KF05 200335Z AUTO 36004KT 1 1/2SM VV007 05/M01 A3030 RMK AO1 T00541007
KF05 200315Z AUTO 02006KT 10SM CLR 06/00 A3029 RMK AO1 T00581003
KF05 200255Z AUTO 01006KT 10SM CLR 05/00 A3029 RMK AO1 T00530000
KF05 200235Z AUTO 36006KT 10SM CLR 06/00 A3027 RMK AO1 T00580000
KF05 200215Z AUTO 01005KT 10SM CLR 07/00 A3027 RMK AO1 T00690001
KF05 200155Z AUTO 36004KT 10SM CLR 07/01 A3026 RMK AO1 T00710005
KF05 200135Z AUTO 36004KT 10SM CLR 08/01 A3026 RMK AO1 T00790006
KF05 200115Z AUTO 00000KT 10SM CLR 09/01 A3024 RMK AO1 T00860006
KF05 200055Z AUTO 00000KT 1 1/2SM VV007 09/01 A3023 RMK AO1 T00900006
KF05 200035Z AUTO 03003KT 10SM CLR 10/01 A3023 RMK AO1 T00960009
KF05 200015Z AUTO 03004KT 10SM CLR 10/01 A3022 RMK AO1 T01000013
KF05 192355Z AUTO 02004KT 10SM CLR 11/01 A3021 RMK AO1 T01050011 10225 20038
KF05 192335Z AUTO 03004KT 10SM CLR 11/01 A3020 RMK AO1 T01140012
KF05 192315Z AUTO 03003KT 10SM CLR 13/01 A3019 RMK AO1 T01280011
KF05 192255Z AUTO 02006KT 10SM CLR 14/00 A3018 RMK AO1 T01390004
KF05 192235Z AUTO 01008KT 10SM CLR 15/00 A3018 RMK AO1 T01450002
KF05 192215Z AUTO 01007KT 10SM CLR 15/00 A3018 RMK AO1 T01470003
KF05 192155Z AUTO 36006KT 10SM CLR 15/01 A3018 RMK AO1 T01480009
KF05 192135Z AUTO 36006KT 10SM CLR 15/01 A3017 RMK AO1 T01510010
KF05 192115Z AUTO 32006KT 310V010 10SM CLR 15/01 A3017 RMK AO1 T01480013
KF05 192055Z AUTO 34008KT 210V020 10SM CLR 15/01 A3017 RMK AO1 T01450013
KF05 192035Z AUTO 30006KT 10SM CLR 14/01 A3017 RMK AO1 T01440012
KF05 192015Z AUTO 30004KT 10SM CLR 14/01 A3017 RMK AO1 T01410013
KF05 191955Z AUTO 28007KT 10SM CLR 14/01 A3018 RMK AO1 T01360012
KF05 191935Z AUTO 27005KT 10SM CLR 13/01 A3018 RMK AO1 T01330013
KF05 191915Z AUTO 26006KT 10SM CLR 13/01 A3019 RMK AO1 T01310013
KF05 191855Z AUTO 28008KT 10SM CLR 13/01 A3020 RMK AO1 T01260010
KF05 191835Z AUTO 29003KT 10SM CLR 12/02 A3020 RMK AO1 T01220015
KF05 191815Z AUTO 29003KT 10SM CLR 11/02 A3021 RMK AO1 T01140018
KF05 191755Z AUTO 29004KT 10SM CLR 11/02 A3022 RMK AO1 6//// T01060020
KF05 191735Z AUTO 30004KT A3023 RMK AO1